sensor_id;sensor_type;location;lat;lon;timestamp;temperature;humidity
54082;DHT22;39986;50.770;0.266;2024-02-04T00:00:29;10.50;99.90
54082;DHT22;39986;50.770;0.266;2024-02-04T00:02:55;10.60;99.90
54082;DHT22;39986;50.770;0.266;2024-02-04T00:05:20;10.50;99.90
54082;DHT22;39986;50.770;0.266;2024-02-04T00:07:46;10.50;99.90
54082;DHT22;39986;50.770;0.266;2024-02-04T00:10:11;10.60;99.90
54082;DHT22;39986;50.770;0.266;2024-02-04T00:12:37;10.50;99.90
54082;DHT22;39986;50.770;0.266;2024-02-04T00:15:04;10.40;99.90
54082;DHT22;39986;50.770;0.266;2024-02-04T00:17:30;10.70;99.90
54082;DHT22;39986;50.770;0.266;2024-02-04T00:19:58;10.60;99.90
54082;DHT22;39986;50.770;0.266;2024-02-04T00:24:50;10.50;99.90
54082;DHT22;39986;50.770;0.266;2024-02-04T00:27:15;10.60;99.90
54082;DHT22;39986;50.770;0.266;2024-02-04T00:29:41;10.50;99.90
54082;DHT22;39986;50.770;0.266;2024-02-04T00:32:06;10.60;99.90
54082;DHT22;39986;50.770;0.266;2024-02-04T00:34:32;10.40;99.90
54082;DHT22;39986;50.770;0.266;2024-02-04T00:36:57;10.40;99.90
54082;DHT22;39986;50.770;0.266;2024-02-04T00:39:23;10.40;99.90
54082;DHT22;39986;50.770;0.266;2024-02-04T00:41:48;10.50;99.90
54082;DHT22;39986;50.770;0.266;2024-02-04T00:44:14;10.50;99.90
54082;DHT22;39986;50.770;0.266;2024-02-04T00:46:39;10.50;99.90
54082;DHT22;39986;50.770;0.266;2024-02-04T00:49:05;10.50;99.90
54082;DHT22;39986;50.770;0.266;2024-02-04T00:51:30;10.60;99.90
54082;DHT22;39986;50.770;0.266;2024-02-04T00:56:23;10.60;99.90
54082;DHT22;39986;50.770;0.266;2024-02-04T00:58:48;10.60;99.90
54082;DHT22;39986;50.770;0.266;2024-02-04T01:01:14;10.40;99.90
54082;DHT22;39986;50.770;0.266;2024-02-04T01:06:05;10.50;99.90
54082;DHT22;39986;50.770;0.266;2024-02-04T01:10:57;10.60;99.90
54082;DHT22;39986;50.770;0.266;2024-02-04T01:15:48;10.50;99.90
54082;DHT22;39986;50.770;0.266;2024-02-04T01:18:14;10.50;99.90
54082;DHT22;39986;50.770;0.266;2024-02-04T01:20:40;10.60;99.90
54082;DHT22;39986;50.770;0.266;2024-02-04T01:23:05;10.50;99.90
54082;DHT22;39986;50.770;0.266;2024-02-04T01:25:31;10.50;99.90
54082;DHT22;39986;50.770;0.266;2024-02-04T01:27:56;10.60;99.90
54082;DHT22;39986;50.770;0.266;2024-02-04T01:32:48;10.60;99.90
54082;DHT22;39986;50.770;0.266;2024-02-04T01:35:13;10.70;99.90
54082;DHT22;39986;50.770;0.266;2024-02-04T01:37:40;10.70;99.90
54082;DHT22;39986;50.770;0.266;2024-02-04T01:40:06;10.60;99.90
54082;DHT22;39986;50.770;0.266;2024-02-04T01:42:31;10.60;99.90
54082;DHT22;39986;50.770;0.266;2024-02-04T01:47:23;10.50;99.90
54082;DHT22;39986;50.770;0.266;2024-02-04T01:49:48;10.70;99.90
54082;DHT22;39986;50.770;0.266;2024-02-04T01:52:14;10.60;99.90
54082;DHT22;39986;50.770;0.266;2024-02-04T01:54:40;7.10;99.90
54082;DHT22;39986;50.770;0.266;2024-02-04T01:57:07;10.60;99.90
54082;DHT22;39986;50.770;0.266;2024-02-04T02:02:01;10.60;99.90
54082;DHT22;39986;50.770;0.266;2024-02-04T02:06:53;10.60;99.90
54082;DHT22;39986;50.770;0.266;2024-02-04T02:09:19;10.60;99.90
54082;DHT22;39986;50.770;0.266;2024-02-04T02:11:46;10.60;99.90
54082;DHT22;39986;50.770;0.266;2024-02-04T02:14:13;10.50;99.90
54082;DHT22;39986;50.770;0.266;2024-02-04T02:16:40;10.70;99.90
54082;DHT22;39986;50.770;0.266;2024-02-04T02:22:14;10.50;99.90
54082;DHT22;39986;50.770;0.266;2024-02-04T02:24:43;10.70;99.90
54082;DHT22;39986;50.770;0.266;2024-02-04T02:27:11;10.60;99.90
54082;DHT22;39986;50.770;0.266;2024-02-04T02:29:37;10.70;99.90
54082;DHT22;39986;50.770;0.266;2024-02-04T02:32:02;10.60;99.90
54082;DHT22;39986;50.770;0.266;2024-02-04T02:34:29;10.60;99.90
54082;DHT22;39986;50.770;0.266;2024-02-04T02:36:56;10.70;99.90
54082;DHT22;39986;50.770;0.266;2024-02-04T02:39:27;10.60;99.90
54082;DHT22;39986;50.770;0.266;2024-02-04T02:41:56;10.70;99.90
54082;DHT22;39986;50.770;0.266;2024-02-04T02:44:23;10.50;99.90
54082;DHT22;39986;50.770;0.266;2024-02-04T02:46:50;10.50;99.90
54082;DHT22;39986;50.770;0.266;2024-02-04T02:49:16;10.50;99.90
54082;DHT22;39986;50.770;0.266;2024-02-04T02:51:41;10.60;99.90
54082;DHT22;39986;50.770;0.266;2024-02-04T02:54:07;10.50;99.90
54082;DHT22;39986;50.770;0.266;2024-02-04T02:56:32;10.40;99.90
54082;DHT22;39986;50.770;0.266;2024-02-04T02:58:58;10.30;99.90
54082;DHT22;39986;50.770;0.266;2024-02-04T03:01:24;10.40;99.90
54082;DHT22;39986;50.770;0.266;2024-02-04T03:06:15;10.40;99.90
54082;DHT22;39986;50.770;0.266;2024-02-04T03:08:41;10.50;99.90
54082;DHT22;39986;50.770;0.266;2024-02-04T03:11:06;10.30;99.90
54082;DHT22;39986;50.770;0.266;2024-02-04T03:13:32;10.50;99.90
54082;DHT22;39986;50.770;0.266;2024-02-04T03:15:57;10.40;99.90
54082;DHT22;39986;50.770;0.266;2024-02-04T03:18:23;10.40;99.90
54082;DHT22;39986;50.770;0.266;2024-02-04T03:20:48;10.40;99.90
54082;DHT22;39986;50.770;0.266;2024-02-04T03:23:14;10.30;99.90
54082;DHT22;39986;50.770;0.266;2024-02-04T03:25:40;10.50;99.90
54082;DHT22;39986;50.770;0.266;2024-02-04T03:28:05;10.40;99.90
54082;DHT22;39986;50.770;0.266;2024-02-04T03:30:31;10.30;99.90
54082;DHT22;39986;50.770;0.266;2024-02-04T03:32:56;10.40;99.90
54082;DHT22;39986;50.770;0.266;2024-02-04T03:35:22;10.40;99.90
54082;DHT22;39986;50.770;0.266;2024-02-04T03:37:47;10.40;99.90
54082;DHT22;39986;50.770;0.266;2024-02-04T03:40:13;10.40;99.90
54082;DHT22;39986;50.770;0.266;2024-02-04T03:45:06;10.40;99.90
54082;DHT22;39986;50.770;0.266;2024-02-04T03:47:31;10.40;99.90
54082;DHT22;39986;50.770;0.266;2024-02-04T03:49:57;10.30;99.90
54082;DHT22;39986;50.770;0.266;2024-02-04T03:52:22;10.40;99.90
54082;DHT22;39986;50.770;0.266;2024-02-04T03:54:48;10.50;99.90
54082;DHT22;39986;50.770;0.266;2024-02-04T03:57:13;10.50;99.90
54082;DHT22;39986;50.770;0.266;2024-02-04T03:59:39;10.40;99.90
54082;DHT22;39986;50.770;0.266;2024-02-04T04:02:04;10.30;99.90
54082;DHT22;39986;50.770;0.266;2024-02-04T04:04:30;10.30;99.90
54082;DHT22;39986;50.770;0.266;2024-02-04T04:06:55;10.40;99.90
54082;DHT22;39986;50.770;0.266;2024-02-04T04:09:21;10.30;99.90
54082;DHT22;39986;50.770;0.266;2024-02-04T04:11:46;10.20;99.90
54082;DHT22;39986;50.770;0.266;2024-02-04T04:14:12;10.30;99.90
54082;DHT22;39986;50.770;0.266;2024-02-04T04:16:37;10.30;99.90
54082;DHT22;39986;50.770;0.266;2024-02-04T04:19:03;10.30;99.90
54082;DHT22;39986;50.770;0.266;2024-02-04T04:21:28;10.90;99.90
54082;DHT22;39986;50.770;0.266;2024-02-04T04:23:54;10.40;99.90
54082;DHT22;39986;50.770;0.266;2024-02-04T04:26:19;10.40;99.90
54082;DHT22;39986;50.770;0.266;2024-02-04T04:28:44;10.40;99.90
54082;DHT22;39986;50.770;0.266;2024-02-04T04:31:10;10.50;99.90
54082;DHT22;39986;50.770;0.266;2024-02-04T04:33:36;10.40;99.90
54082;DHT22;39986;50.770;0.266;2024-02-04T04:36:01;10.60;99.90
54082;DHT22;39986;50.770;0.266;2024-02-04T04:38:27;10.50;99.90
54082;DHT22;39986;50.770;0.266;2024-02-04T04:40:52;10.50;99.90
54082;DHT22;39986;50.770;0.266;2024-02-04T04:43:18;10.50;99.90
54082;DHT22;39986;50.770;0.266;2024-02-04T04:45:43;10.40;99.90
54082;DHT22;39986;50.770;0.266;2024-02-04T04:48:09;10.60;99.90
54082;DHT22;39986;50.770;0.266;2024-02-04T04:50:35;10.60;99.90
54082;DHT22;39986;50.770;0.266;2024-02-04T04:53:00;10.50;99.90
54082;DHT22;39986;50.770;0.266;2024-02-04T04:55:26;10.60;99.90
54082;DHT22;39986;50.770;0.266;2024-02-04T04:57:52;10.50;99.90
54082;DHT22;39986;50.770;0.266;2024-02-04T05:00:18;10.60;99.90
54082;DHT22;39986;50.770;0.266;2024-02-04T05:02:44;10.50;99.90
54082;DHT22;39986;50.770;0.266;2024-02-04T05:05:13;10.50;99.90
54082;DHT22;39986;50.770;0.266;2024-02-04T05:07:39;10.50;99.90
54082;DHT22;39986;50.770;0.266;2024-02-04T05:10:04;10.40;99.90
54082;DHT22;39986;50.770;0.266;2024-02-04T05:12:30;10.40;99.90
54082;DHT22;39986;50.770;0.266;2024-02-04T05:14:56;10.30;99.90
54082;DHT22;39986;50.770;0.266;2024-02-04T05:17:21;10.50;99.90
54082;DHT22;39986;50.770;0.266;2024-02-04T05:19:47;10.30;99.90
54082;DHT22;39986;50.770;0.266;2024-02-04T05:22:13;10.30;99.90
54082;DHT22;39986;50.770;0.266;2024-02-04T05:24:38;10.40;99.90
54082;DHT22;39986;50.770;0.266;2024-02-04T05:27:04;10.30;99.90
54082;DHT22;39986;50.770;0.266;2024-02-04T05:29:30;10.30;99.90
54082;DHT22;39986;50.770;0.266;2024-02-04T05:31:56;10.20;99.90
54082;DHT22;39986;50.770;0.266;2024-02-04T05:34:21;10.40;99.90
54082;DHT22;39986;50.770;0.266;2024-02-04T05:36:47;10.20;99.90
54082;DHT22;39986;50.770;0.266;2024-02-04T05:39:13;10.30;99.90
54082;DHT22;39986;50.770;0.266;2024-02-04T05:41:39;10.30;99.90
54082;DHT22;39986;50.770;0.266;2024-02-04T05:44:05;10.20;99.90
54082;DHT22;39986;50.770;0.266;2024-02-04T05:48:56;10.40;99.90
54082;DHT22;39986;50.770;0.266;2024-02-04T05:51:22;10.40;99.90
54082;DHT22;39986;50.770;0.266;2024-02-04T05:53:47;10.40;99.90
54082;DHT22;39986;50.770;0.266;2024-02-04T05:56:13;10.20;99.90
54082;DHT22;39986;50.770;0.266;2024-02-04T05:58:39;10.10;99.90
54082;DHT22;39986;50.770;0.266;2024-02-04T06:01:04;10.30;99.90
54082;DHT22;39986;50.770;0.266;2024-02-04T06:03:30;10.30;99.90
54082;DHT22;39986;50.770;0.266;2024-02-04T06:05:55;10.40;99.90
54082;DHT22;39986;50.770;0.266;2024-02-04T06:08:21;10.30;99.90
54082;DHT22;39986;50.770;0.266;2024-02-04T06:10:46;10.10;99.90
54082;DHT22;39986;50.770;0.266;2024-02-04T06:15:38;10.30;99.90
54082;DHT22;39986;50.770;0.266;2024-02-04T06:20:29;10.10;99.90
54082;DHT22;39986;50.770;0.266;2024-02-04T06:25:23;10.10;99.90
54082;DHT22;39986;50.770;0.266;2024-02-04T06:30:15;10.20;99.90
54082;DHT22;39986;50.770;0.266;2024-02-04T06:32:41;10.00;99.90
54082;DHT22;39986;50.770;0.266;2024-02-04T06:35:07;10.20;99.90
54082;DHT22;39986;50.770;0.266;2024-02-04T06:37:32;10.10;99.90
54082;DHT22;39986;50.770;0.266;2024-02-04T06:39:58;10.30;99.90
54082;DHT22;39986;50.770;0.266;2024-02-04T06:42:23;10.20;99.90
54082;DHT22;39986;50.770;0.266;2024-02-04T06:44:49;10.30;99.90
54082;DHT22;39986;50.770;0.266;2024-02-04T06:47:15;10.20;99.90
54082;DHT22;39986;50.770;0.266;2024-02-04T06:52:06;10.30;99.90
54082;DHT22;39986;50.770;0.266;2024-02-04T06:54:32;10.30;99.90
54082;DHT22;39986;50.770;0.266;2024-02-04T06:56:57;10.30;99.90
54082;DHT22;39986;50.770;0.266;2024-02-04T06:59:23;10.20;99.90
54082;DHT22;39986;50.770;0.266;2024-02-04T07:01:49;10.30;99.90
54082;DHT22;39986;50.770;0.266;2024-02-04T07:04:15;10.20;99.90
54082;DHT22;39986;50.770;0.266;2024-02-04T07:06:40;10.40;99.90
54082;DHT22;39986;50.770;0.266;2024-02-04T07:09:06;10.30;99.90
54082;DHT22;39986;50.770;0.266;2024-02-04T07:11:32;10.40;99.90
54082;DHT22;39986;50.770;0.266;2024-02-04T07:13:57;10.20;99.90
54082;DHT22;39986;50.770;0.266;2024-02-04T07:16:26;10.40;99.90
54082;DHT22;39986;50.770;0.266;2024-02-04T07:18:51;10.40;99.90
54082;DHT22;39986;50.770;0.266;2024-02-04T07:23:43;10.30;99.90
54082;DHT22;39986;50.770;0.266;2024-02-04T07:26:08;10.20;99.90
54082;DHT22;39986;50.770;0.266;2024-02-04T07:28:34;11.00;99.90
54082;DHT22;39986;50.770;0.266;2024-02-04T07:31:00;10.30;99.90
54082;DHT22;39986;50.770;0.266;2024-02-04T07:33:25;10.50;99.90
54082;DHT22;39986;50.770;0.266;2024-02-04T07:35:51;10.30;99.90
54082;DHT22;39986;50.770;0.266;2024-02-04T07:40:42;10.20;99.90
54082;DHT22;39986;50.770;0.266;2024-02-04T07:43:08;10.30;99.90
54082;DHT22;39986;50.770;0.266;2024-02-04T07:47:59;10.20;99.90
54082;DHT22;39986;50.770;0.266;2024-02-04T07:50:24;10.20;99.90
54082;DHT22;39986;50.770;0.266;2024-02-04T07:52:51;10.10;99.90
54082;DHT22;39986;50.770;0.266;2024-02-04T07:55:16;10.20;99.90
54082;DHT22;39986;50.770;0.266;2024-02-04T07:57:42;10.20;99.90
54082;DHT22;39986;50.770;0.266;2024-02-04T08:02:36;10.20;99.90
54082;DHT22;39986;50.770;0.266;2024-02-04T08:07:27;10.10;99.90
54082;DHT22;39986;50.770;0.266;2024-02-04T08:09:53;10.30;99.90
54082;DHT22;39986;50.770;0.266;2024-02-04T08:12:18;10.20;99.90
54082;DHT22;39986;50.770;0.266;2024-02-04T08:14:44;10.30;99.90
54082;DHT22;39986;50.770;0.266;2024-02-04T08:17:09;10.40;99.90
54082;DHT22;39986;50.770;0.266;2024-02-04T08:19:35;10.50;99.90
54082;DHT22;39986;50.770;0.266;2024-02-04T08:22:00;10.70;99.90
54082;DHT22;39986;50.770;0.266;2024-02-04T08:24:26;10.70;99.90
54082;DHT22;39986;50.770;0.266;2024-02-04T08:26:51;10.90;99.90
54082;DHT22;39986;50.770;0.266;2024-02-04T08:29:18;10.80;99.90
54082;DHT22;39986;50.770;0.266;2024-02-04T08:34:09;11.00;99.90
54082;DHT22;39986;50.770;0.266;2024-02-04T08:36:35;11.10;99.90
54082;DHT22;39986;50.770;0.266;2024-02-04T08:41:26;11.30;99.90
54082;DHT22;39986;50.770;0.266;2024-02-04T08:43:52;11.50;99.90
54082;DHT22;39986;50.770;0.266;2024-02-04T08:46:17;11.40;99.90
54082;DHT22;39986;50.770;0.266;2024-02-04T08:48:43;11.40;99.90
54082;DHT22;39986;50.770;0.266;2024-02-04T08:51:12;11.60;99.90
54082;DHT22;39986;50.770;0.266;2024-02-04T08:53:41;11.70;99.90
54082;DHT22;39986;50.770;0.266;2024-02-04T08:56:07;11.80;99.90
54082;DHT22;39986;50.770;0.266;2024-02-04T08:58:34;11.60;99.90
54082;DHT22;39986;50.770;0.266;2024-02-04T09:00:59;11.60;99.90
54082;DHT22;39986;50.770;0.266;2024-02-04T09:03:25;11.60;99.90
54082;DHT22;39986;50.770;0.266;2024-02-04T09:05:50;11.50;99.90
54082;DHT22;39986;50.770;0.266;2024-02-04T09:08:16;11.50;99.90
54082;DHT22;39986;50.770;0.266;2024-02-04T09:10:41;11.50;99.90
54082;DHT22;39986;50.770;0.266;2024-02-04T09:13:07;11.50;99.90
54082;DHT22;39986;50.770;0.266;2024-02-04T09:15:32;11.40;99.90
54082;DHT22;39986;50.770;0.266;2024-02-04T09:17:58;11.30;99.90
54082;DHT22;39986;50.770;0.266;2024-02-04T09:20:23;11.40;99.90
54082;DHT22;39986;50.770;0.266;2024-02-04T09:22:49;11.30;99.90
54082;DHT22;39986;50.770;0.266;2024-02-04T09:25:14;11.30;99.90
54082;DHT22;39986;50.770;0.266;2024-02-04T09:27:40;11.30;99.90
54082;DHT22;39986;50.770;0.266;2024-02-04T09:30:05;11.40;99.90
54082;DHT22;39986;50.770;0.266;2024-02-04T09:32:31;11.30;99.90
54082;DHT22;39986;50.770;0.266;2024-02-04T09:34:57;11.40;99.90
54082;DHT22;39986;50.770;0.266;2024-02-04T09:37:23;11.40;99.90
54082;DHT22;39986;50.770;0.266;2024-02-04T09:39:48;11.50;99.90
54082;DHT22;39986;50.770;0.266;2024-02-04T09:42:18;11.60;99.90
54082;DHT22;39986;50.770;0.266;2024-02-04T09:44:44;11.60;99.90
54082;DHT22;39986;50.770;0.266;2024-02-04T09:49:35;11.50;99.90
54082;DHT22;39986;50.770;0.266;2024-02-04T09:52:03;11.50;99.90
54082;DHT22;39986;50.770;0.266;2024-02-04T09:54:30;11.50;99.90
54082;DHT22;39986;50.770;0.266;2024-02-04T09:56:56;11.60;99.90
54082;DHT22;39986;50.770;0.266;2024-02-04T09:59:22;11.50;99.90
54082;DHT22;39986;50.770;0.266;2024-02-04T10:01:48;11.50;99.90
54082;DHT22;39986;50.770;0.266;2024-02-04T10:04:14;11.40;99.90
54082;DHT22;39986;50.770;0.266;2024-02-04T10:06:40;11.50;99.90
54082;DHT22;39986;50.770;0.266;2024-02-04T10:11:31;11.40;99.90
54082;DHT22;39986;50.770;0.266;2024-02-04T10:13:57;11.70;99.90
54082;DHT22;39986;50.770;0.266;2024-02-04T10:18:48;11.60;99.90
54082;DHT22;39986;50.770;0.266;2024-02-04T10:21:18;11.70;99.90
54082;DHT22;39986;50.770;0.266;2024-02-04T10:23:45;11.60;99.90
54082;DHT22;39986;50.770;0.266;2024-02-04T10:26:10;11.60;99.90
54082;DHT22;39986;50.770;0.266;2024-02-04T10:28:37;11.70;99.90
54082;DHT22;39986;50.770;0.266;2024-02-04T10:31:02;11.50;99.90
54082;DHT22;39986;50.770;0.266;2024-02-04T10:35:54;11.70;99.90
54082;DHT22;39986;50.770;0.266;2024-02-04T10:38:19;11.70;99.90
54082;DHT22;39986;50.770;0.266;2024-02-04T10:40:45;11.60;99.90
54082;DHT22;39986;50.770;0.266;2024-02-04T10:43:11;11.70;99.90
54082;DHT22;39986;50.770;0.266;2024-02-04T10:48:03;11.60;99.90
54082;DHT22;39986;50.770;0.266;2024-02-04T10:50:32;11.80;99.90
54082;DHT22;39986;50.770;0.266;2024-02-04T10:53:01;11.80;99.90
54082;DHT22;39986;50.770;0.266;2024-02-04T10:55:29;11.90;99.90
54082;DHT22;39986;50.770;0.266;2024-02-04T11:00:22;11.90;99.90
54082;DHT22;39986;50.770;0.266;2024-02-04T11:02:47;12.00;99.90
54082;DHT22;39986;50.770;0.266;2024-02-04T11:05:14;11.80;99.90
54082;DHT22;39986;50.770;0.266;2024-02-04T11:07:41;11.70;99.90
54082;DHT22;39986;50.770;0.266;2024-02-04T11:10:08;9.20;99.90
54082;DHT22;39986;50.770;0.266;2024-02-04T11:12:35;11.50;99.90
54082;DHT22;39986;50.770;0.266;2024-02-04T11:15:03;12.70;99.90
54082;DHT22;39986;50.770;0.266;2024-02-04T11:17:50;11.70;99.90
54082;DHT22;39986;50.770;0.266;2024-02-04T11:23:14;11.70;99.90
54082;DHT22;39986;50.770;0.266;2024-02-04T11:25:49;11.70;99.90
54082;DHT22;39986;50.770;0.266;2024-02-04T11:28:16;11.60;99.90
54082;DHT22;39986;50.770;0.266;2024-02-04T11:30:45;11.90;99.90
54082;DHT22;39986;50.770;0.266;2024-02-04T11:33:11;11.60;99.90
54082;DHT22;39986;50.770;0.266;2024-02-04T11:35:37;11.50;99.90
54082;DHT22;39986;50.770;0.266;2024-02-04T11:38:03;11.60;99.90
54082;DHT22;39986;50.770;0.266;2024-02-04T11:40:35;11.50;99.90
54082;DHT22;39986;50.770;0.266;2024-02-04T11:43:11;11.60;99.90
54082;DHT22;39986;50.770;0.266;2024-02-04T11:45:40;11.50;99.90
54082;DHT22;39986;50.770;0.266;2024-02-04T11:48:07;11.70;99.90
54082;DHT22;39986;50.770;0.266;2024-02-04T11:50:33;11.80;99.90
54082;DHT22;39986;50.770;0.266;2024-02-04T11:53:09;11.90;99.90
54082;DHT22;39986;50.770;0.266;2024-02-04T11:55:35;11.80;99.90
54082;DHT22;39986;50.770;0.266;2024-02-04T11:58:05;11.70;99.90
54082;DHT22;39986;50.770;0.266;2024-02-04T12:00:37;11.80;99.90
54082;DHT22;39986;50.770;0.266;2024-02-04T12:03:03;11.70;99.90
54082;DHT22;39986;50.770;0.266;2024-02-04T12:05:30;11.70;99.90
54082;DHT22;39986;50.770;0.266;2024-02-04T12:10:22;11.60;99.90
54082;DHT22;39986;50.770;0.266;2024-02-04T12:15:14;11.60;99.90
54082;DHT22;39986;50.770;0.266;2024-02-04T12:17:39;11.60;99.90
54082;DHT22;39986;50.770;0.266;2024-02-04T12:20:05;11.70;99.90
54082;DHT22;39986;50.770;0.266;2024-02-04T12:22:32;11.50;99.90
54082;DHT22;39986;50.770;0.266;2024-02-04T12:24:58;11.50;99.90
54082;DHT22;39986;50.770;0.266;2024-02-04T12:27:24;11.60;99.90
54082;DHT22;39986;50.770;0.266;2024-02-04T12:29:50;11.90;99.90
54082;DHT22;39986;50.770;0.266;2024-02-04T12:32:16;11.60;99.90
54082;DHT22;39986;50.770;0.266;2024-02-04T12:34:47;11.60;99.90
54082;DHT22;39986;50.770;0.266;2024-02-04T12:37:13;11.70;99.90
54082;DHT22;39986;50.770;0.266;2024-02-04T12:39:38;11.80;99.90
54082;DHT22;39986;50.770;0.266;2024-02-04T12:42:04;11.80;99.90
54082;DHT22;39986;50.770;0.266;2024-02-04T12:44:30;11.70;99.90
54082;DHT22;39986;50.770;0.266;2024-02-04T12:46:55;11.90;99.90
54082;DHT22;39986;50.770;0.266;2024-02-04T12:49:21;11.90;99.90
54082;DHT22;39986;50.770;0.266;2024-02-04T12:51:47;11.90;99.90
54082;DHT22;39986;50.770;0.266;2024-02-04T12:54:13;11.80;99.90
54082;DHT22;39986;50.770;0.266;2024-02-04T12:56:43;12.00;99.90
54082;DHT22;39986;50.770;0.266;2024-02-04T12:59:09;12.00;99.90
54082;DHT22;39986;50.770;0.266;2024-02-04T13:01:35;12.00;99.90
54082;DHT22;39986;50.770;0.266;2024-02-04T13:04:01;14.50;99.90
54082;DHT22;39986;50.770;0.266;2024-02-04T13:06:27;12.10;99.90
54082;DHT22;39986;50.770;0.266;2024-02-04T13:08:55;11.90;99.90
54082;DHT22;39986;50.770;0.266;2024-02-04T13:11:24;11.90;99.90
54082;DHT22;39986;50.770;0.266;2024-02-04T13:13:49;11.90;99.90
54082;DHT22;39986;50.770;0.266;2024-02-04T13:16:15;12.00;99.90
54082;DHT22;39986;50.770;0.266;2024-02-04T13:18:41;12.00;99.90
54082;DHT22;39986;50.770;0.266;2024-02-04T13:21:07;11.90;99.90
54082;DHT22;39986;50.770;0.266;2024-02-04T13:23:33;12.00;99.90
54082;DHT22;39986;50.770;0.266;2024-02-04T13:26:00;12.00;99.90
54082;DHT22;39986;50.770;0.266;2024-02-04T13:30:51;11.90;99.90
54082;DHT22;39986;50.770;0.266;2024-02-04T13:35:43;11.80;99.90
54082;DHT22;39986;50.770;0.266;2024-02-04T13:38:08;11.80;99.90
54082;DHT22;39986;50.770;0.266;2024-02-04T13:40:34;11.90;99.90
54082;DHT22;39986;50.770;0.266;2024-02-04T13:42:59;12.00;99.90
54082;DHT22;39986;50.770;0.266;2024-02-04T13:45:25;12.30;99.90
54082;DHT22;39986;50.770;0.266;2024-02-04T13:47:50;12.10;99.90
54082;DHT22;39986;50.770;0.266;2024-02-04T13:50:16;14.20;99.90
54082;DHT22;39986;50.770;0.266;2024-02-04T13:52:41;13.30;99.90
54082;DHT22;39986;50.770;0.266;2024-02-04T13:55:07;12.90;99.90
54082;DHT22;39986;50.770;0.266;2024-02-04T13:57:33;13.10;99.90
54082;DHT22;39986;50.770;0.266;2024-02-04T13:59:58;13.10;99.90
54082;DHT22;39986;50.770;0.266;2024-02-04T14:02:24;13.00;99.90
54082;DHT22;39986;50.770;0.266;2024-02-04T14:04:51;13.40;99.90
54082;DHT22;39986;50.770;0.266;2024-02-04T14:07:18;14.40;99.90
54082;DHT22;39986;50.770;0.266;2024-02-04T14:09:43;14.40;99.90
54082;DHT22;39986;50.770;0.266;2024-02-04T14:12:09;13.10;99.90
54082;DHT22;39986;50.770;0.266;2024-02-04T14:14:36;13.20;99.90
54082;DHT22;39986;50.770;0.266;2024-02-04T14:17:02;12.30;99.90
54082;DHT22;39986;50.770;0.266;2024-02-04T14:19:27;12.20;99.90
54082;DHT22;39986;50.770;0.266;2024-02-04T14:21:53;12.20;99.90
54082;DHT22;39986;50.770;0.266;2024-02-04T14:24:18;12.40;99.90
54082;DHT22;39986;50.770;0.266;2024-02-04T14:26:44;12.30;99.90
54082;DHT22;39986;50.770;0.266;2024-02-04T14:29:10;14.50;99.90
54082;DHT22;39986;50.770;0.266;2024-02-04T14:31:35;12.20;99.90
54082;DHT22;39986;50.770;0.266;2024-02-04T14:34:01;12.10;99.90
54082;DHT22;39986;50.770;0.266;2024-02-04T14:36:26;12.00;99.90
54082;DHT22;39986;50.770;0.266;2024-02-04T14:38:52;11.90;99.90
54082;DHT22;39986;50.770;0.266;2024-02-04T14:41:18;11.90;99.90
54082;DHT22;39986;50.770;0.266;2024-02-04T14:43:43;12.00;99.90
54082;DHT22;39986;50.770;0.266;2024-02-04T14:46:09;14.50;99.90
54082;DHT22;39986;50.770;0.266;2024-02-04T14:48:37;11.90;99.90
54082;DHT22;39986;50.770;0.266;2024-02-04T14:51:04;11.90;99.90
54082;DHT22;39986;50.770;0.266;2024-02-04T14:53:30;12.00;99.90
54082;DHT22;39986;50.770;0.266;2024-02-04T14:55:55;13.10;99.90
54082;DHT22;39986;50.770;0.266;2024-02-04T14:58:22;11.80;99.90
54082;DHT22;39986;50.770;0.266;2024-02-04T15:00:47;11.80;99.90
54082;DHT22;39986;50.770;0.266;2024-02-04T15:03:14;11.70;99.90
54082;DHT22;39986;50.770;0.266;2024-02-04T15:05:42;13.90;99.90
54082;DHT22;39986;50.770;0.266;2024-02-04T15:08:08;11.70;99.90
54082;DHT22;39986;50.770;0.266;2024-02-04T15:10:33;11.70;99.90
54082;DHT22;39986;50.770;0.266;2024-02-04T15:12:59;13.90;99.90
54082;DHT22;39986;50.770;0.266;2024-02-04T15:15:25;11.70;99.90
54082;DHT22;39986;50.770;0.266;2024-02-04T15:17:51;11.50;99.90
54082;DHT22;39986;50.770;0.266;2024-02-04T15:20:16;11.50;99.90
54082;DHT22;39986;50.770;0.266;2024-02-04T15:22:43;11.80;99.90
54082;DHT22;39986;50.770;0.266;2024-02-04T15:25:09;11.60;99.90
54082;DHT22;39986;50.770;0.266;2024-02-04T15:27:35;11.60;99.90
54082;DHT22;39986;50.770;0.266;2024-02-04T15:30:01;11.70;99.90
54082;DHT22;39986;50.770;0.266;2024-02-04T15:32:27;11.50;99.90
54082;DHT22;39986;50.770;0.266;2024-02-04T15:34:53;11.30;99.90
54082;DHT22;39986;50.770;0.266;2024-02-04T15:37:19;9.70;99.90
54082;DHT22;39986;50.770;0.266;2024-02-04T15:39:44;11.50;99.90
54082;DHT22;39986;50.770;0.266;2024-02-04T15:42:10;11.50;99.90
54082;DHT22;39986;50.770;0.266;2024-02-04T15:44:35;11.40;99.90
54082;DHT22;39986;50.770;0.266;2024-02-04T15:47:05;11.40;99.90
54082;DHT22;39986;50.770;0.266;2024-02-04T15:49:31;11.40;99.90
54082;DHT22;39986;50.770;0.266;2024-02-04T15:51:57;11.30;99.90
54082;DHT22;39986;50.770;0.266;2024-02-04T15:54:22;11.40;99.90
54082;DHT22;39986;50.770;0.266;2024-02-04T15:56:58;11.30;99.90
54082;DHT22;39986;50.770;0.266;2024-02-04T15:59:28;11.30;99.90
54082;DHT22;39986;50.770;0.266;2024-02-04T16:01:57;11.20;99.90
54082;DHT22;39986;50.770;0.266;2024-02-04T16:04:23;11.30;99.90
54082;DHT22;39986;50.770;0.266;2024-02-04T16:06:48;11.30;99.90
54082;DHT22;39986;50.770;0.266;2024-02-04T16:09:15;11.10;99.90
54082;DHT22;39986;50.770;0.266;2024-02-04T16:11:49;11.20;99.90
54082;DHT22;39986;50.770;0.266;2024-02-04T16:14:16;11.40;99.90
54082;DHT22;39986;50.770;0.266;2024-02-04T16:16:42;11.20;99.90
54082;DHT22;39986;50.770;0.266;2024-02-04T16:19:08;11.30;99.90
54082;DHT22;39986;50.770;0.266;2024-02-04T16:21:34;11.30;99.90
54082;DHT22;39986;50.770;0.266;2024-02-04T16:26:27;11.10;99.90
54082;DHT22;39986;50.770;0.266;2024-02-04T16:33:45;11.20;99.90
54082;DHT22;39986;50.770;0.266;2024-02-04T16:36:11;11.10;99.90
54082;DHT22;39986;50.770;0.266;2024-02-04T16:41:02;11.00;99.90
54082;DHT22;39986;50.770;0.266;2024-02-04T16:43:28;11.10;99.90
54082;DHT22;39986;50.770;0.266;2024-02-04T16:48:19;11.00;99.90
54082;DHT22;39986;50.770;0.266;2024-02-04T16:50:45;11.00;99.90
54082;DHT22;39986;50.770;0.266;2024-02-04T16:53:12;11.00;99.90
54082;DHT22;39986;50.770;0.266;2024-02-04T16:58:05;11.00;99.90
54082;DHT22;39986;50.770;0.266;2024-02-04T17:00:31;11.10;99.90
54082;DHT22;39986;50.770;0.266;2024-02-04T17:02:56;10.90;99.90
54082;DHT22;39986;50.770;0.266;2024-02-04T17:05:22;10.70;99.90